Terminal Aerodrome Forecast
Issued by NWS Wilmington, OH

Current Version | Previous Version | Text Only | Print | Product List | Glossary Off
Versions: 1 2 3 4 5 6 7 8 9 10 11 12 13 14 15 16 17 18 19 20 21

000
FTUS41 KILN 262300 RRA
TAFCVG
TAF
KCVG 262348Z 2700/2806 34010KT P6SM SCT025 BKN070
     FM270600 34005KT P6SM SCT025
     FM272200 VRB03KT P6SM SKC
     FM280000 03004KT P6SM SCT040 BKN100=

USA.gov is the U.S. government's official web portal to all federal, state and local government web resources and services.